Terminal Aerodrome Forecast
Issued by NWS Sioux Falls, SD

Home | Current Version | Previous Version | Text Only | Print | Product List | Glossary On
Versions: 1 2 3 4 5 6 7 8 9 10 11 12 13 14 15 16 17
000
FTUS43 KFSD 221123
TAFHON
TAF
KHON 221123Z 2212/2312 31008KT 2SM BR OVC003
      TEMPO 2212/2214 1SM BR OVC002
     FM221500 31008KT P6SM OVC008
     FM222000 30010KT P6SM OVC015
     FM222200 30008KT P6SM BKN025
     FM230100 29007KT P6SM SCT025
     FM230800 27004KT P6SM BKN015=

USA.gov is the U.S. government's official web portal to all federal, state and local government web resources and services.